createdAt,value
2023-01-26T00:01:16.908Z,0.80
2023-01-26T00:03:43.917Z,0.80
2023-01-26T00:06:14.035Z,0.80
2023-01-26T00:08:43.261Z,0.80
2023-01-26T00:11:12.578Z,0.80
2023-01-26T00:13:39.931Z,0.80
2023-01-26T00:16:11.533Z,0.80
2023-01-26T00:18:39.670Z,0.90
2023-01-26T00:21:08.408Z,0.90
2023-01-26T00:23:36.831Z,0.90
2023-01-26T00:26:06.493Z,0.90
2023-01-26T00:28:33.292Z,0.80
2023-01-26T00:31:21.569Z,0.80
2023-01-26T00:33:48.381Z,0.80
2023-01-26T00:36:15.275Z,0.80
2023-01-26T00:38:42.665Z,0.80
2023-01-26T00:41:30.382Z,0.80
2023-01-26T00:43:57.439Z,0.80
2023-01-26T00:46:24.207Z,0.80
2023-01-26T00:48:50.926Z,0.80
2023-01-26T00:51:17.724Z,0.70
2023-01-26T00:53:44.650Z,0.70
2023-01-26T00:56:14.666Z,0.70
2023-01-26T00:58:42.192Z,0.80
2023-01-26T01:01:09.001Z,0.80
2023-01-26T01:03:35.799Z,0.80
2023-01-26T01:06:02.586Z,0.80
2023-01-26T01:08:29.491Z,0.70
2023-01-26T01:11:07.774Z,0.70
2023-01-26T01:13:34.926Z,0.80
2023-01-26T01:16:04.706Z,0.80
2023-01-26T01:18:31.558Z,0.90
2023-01-26T01:20:58.258Z,0.80
2023-01-26T01:23:28.737Z,0.90
2023-01-26T01:26:00.200Z,0.80
2023-01-26T01:28:27.697Z,0.80
2023-01-26T01:30:54.506Z,0.80
2023-01-26T01:33:23.385Z,0.80
2023-01-26T01:36:01.367Z,0.80
2023-01-26T01:38:30.719Z,0.90
2023-01-26T01:40:57.956Z,0.90
2023-01-26T01:43:25.633Z,0.90
2023-01-26T01:45:53.704Z,0.90
2023-01-26T01:48:53.448Z,0.90
2023-01-26T01:51:35.840Z,1.00
2023-01-26T01:54:07.007Z,1.00
2023-01-26T01:56:36.477Z,0.90
2023-01-26T01:59:05.250Z,0.90
2023-01-26T02:01:32.024Z,0.90
2023-01-26T02:04:04.374Z,0.90
2023-01-26T02:06:39.310Z,0.90
2023-01-26T02:09:07.330Z,1.00
2023-01-26T02:11:40.504Z,1.00
2023-01-26T02:14:10.323Z,1.00
2023-01-26T02:16:39.882Z,1.00
2023-01-26T02:19:21.159Z,0.90
2023-01-26T02:21:50.857Z,0.90
2023-01-26T02:24:27.823Z,0.90
2023-01-26T02:26:54.988Z,0.90
2023-01-26T02:29:22.682Z,0.80
2023-01-26T02:31:49.518Z,0.80
2023-01-26T02:34:16.405Z,0.80
2023-01-26T02:36:43.191Z,0.80
2023-01-26T02:39:26.851Z,0.80
2023-01-26T02:42:13.373Z,0.80
2023-01-26T02:44:42.897Z,0.80
2023-01-26T02:47:17.488Z,0.80
2023-01-26T02:49:50.350Z,0.80
2023-01-26T02:52:25.809Z,0.80
2023-01-26T02:55:28.473Z,0.70
2023-01-26T02:57:58.007Z,0.80
2023-01-26T03:00:34.891Z,0.70
2023-01-26T03:03:02.236Z,0.70
2023-01-26T03:05:30.682Z,0.60
2023-01-26T03:07:57.411Z,0.60
2023-01-26T03:10:30.109Z,0.60
2023-01-26T03:12:56.921Z,0.60
2023-01-26T03:15:43.210Z,0.50
2023-01-26T03:18:36.972Z,0.60
2023-01-26T03:21:25.733Z,0.60
2023-01-26T03:24:10.952Z,0.60
2023-01-26T03:26:57.947Z,0.50
2023-01-26T03:29:28.099Z,0.50
2023-01-26T03:31:59.316Z,0.60
2023-01-26T03:34:27.064Z,0.60
2023-01-26T03:36:53.921Z,0.60
2023-01-26T03:39:39.950Z,0.60
2023-01-26T03:42:25.183Z,0.60
2023-01-26T03:45:10.512Z,0.60
2023-01-26T03:47:58.966Z,0.60
2023-01-26T03:50:44.883Z,0.50
2023-01-26T03:53:39.298Z,0.50
2023-01-26T03:56:24.649Z,0.50
2023-01-26T03:58:57.542Z,0.40
2023-01-26T04:01:28.931Z,0.40
2023-01-26T04:04:17.661Z,0.40
2023-01-26T04:07:06.155Z,0.40
2023-01-26T04:09:34.864Z,0.30
2023-01-26T04:12:01.803Z,0.30
2023-01-26T04:14:50.132Z,0.40
2023-01-26T04:17:39.225Z,0.40
2023-01-26T04:20:25.766Z,0.40
2023-01-26T04:22:52.687Z,0.40
2023-01-26T04:25:21.702Z,0.40
2023-01-26T04:27:48.542Z,0.30
2023-01-26T04:30:17.014Z,0.40
2023-01-26T04:32:46.025Z,0.40
2023-01-26T04:35:13.938Z,0.40
2023-01-26T04:37:42.883Z,0.40
2023-01-26T04:40:10.654Z,0.40
2023-01-26T04:42:38.148Z,0.40
2023-01-26T04:45:06.162Z,0.40
2023-01-26T04:47:34.509Z,0.30
2023-01-26T04:50:02.278Z,0.40
2023-01-26T04:52:29.000Z,0.30
2023-01-26T04:54:55.783Z,0.30
2023-01-26T04:57:24.536Z,0.30
2023-01-26T04:59:52.115Z,0.40
2023-01-26T05:02:20.230Z,0.40
2023-01-26T05:04:47.039Z,0.40
2023-01-26T05:07:15.032Z,0.40
2023-01-26T05:09:41.803Z,0.40
2023-01-26T05:12:37.321Z,0.40
2023-01-26T05:15:22.877Z,0.40
2023-01-26T05:18:00.152Z,0.50
2023-01-26T05:20:36.604Z,0.50
2023-01-26T05:23:14.044Z,0.50
2023-01-26T05:25:59.238Z,0.40
2023-01-26T05:28:26.880Z,0.50
2023-01-26T05:30:53.833Z,0.50
2023-01-26T05:33:22.181Z,0.50
2023-01-26T05:35:50.765Z,0.50
2023-01-26T05:38:17.710Z,0.40
2023-01-26T05:40:45.481Z,0.40
2023-01-26T05:43:13.222Z,0.40
2023-01-26T05:46:07.910Z,0.30
2023-01-26T05:48:34.827Z,0.30
2023-01-26T05:51:03.960Z,0.40
2023-01-26T05:53:32.709Z,0.40
2023-01-26T05:55:59.465Z,0.50
2023-01-26T05:58:28.220Z,0.50
2023-01-26T06:00:55.052Z,0.50
2023-01-26T06:03:26.997Z,0.40
2023-01-26T06:05:55.258Z,0.50
2023-01-26T06:08:40.744Z,0.50
2023-01-26T06:11:42.924Z,0.40
2023-01-26T06:14:30.009Z,0.40
2023-01-26T06:16:56.943Z,0.50
2023-01-26T06:19:27.362Z,0.40
2023-01-26T06:21:58.553Z,0.40
2023-01-26T06:24:25.586Z,0.40
2023-01-26T06:26:52.785Z,0.40
2023-01-26T06:29:19.684Z,0.40
2023-01-26T06:31:46.596Z,0.40
2023-01-26T06:34:13.776Z,0.40
2023-01-26T06:36:42.391Z,0.40
2023-01-26T06:39:14.380Z,0.40
2023-01-26T06:41:42.664Z,0.40
2023-01-26T06:44:09.521Z,0.40
2023-01-26T06:46:36.885Z,0.30
2023-01-26T06:49:04.906Z,0.30
2023-01-26T06:51:53.424Z,0.40
2023-01-26T06:54:21.242Z,0.40
2023-01-26T06:57:10.389Z,0.30
2023-01-26T06:59:57.924Z,0.30
2023-01-26T07:02:43.501Z,0.30
2023-01-26T07:05:12.013Z,0.30
2023-01-26T07:07:39.517Z,0.40
2023-01-26T07:10:07.415Z,0.40
2023-01-26T07:12:45.816Z,0.50
2023-01-26T07:15:13.223Z,0.40
2023-01-26T07:17:40.560Z,0.40
2023-01-26T07:20:07.769Z,0.40
2023-01-26T07:22:34.574Z,0.40
2023-01-26T07:25:01.422Z,0.40
2023-01-26T07:27:28.134Z,0.30
2023-01-26T07:29:54.936Z,0.40
2023-01-26T07:32:21.749Z,0.40
2023-01-26T07:34:49.278Z,0.40
2023-01-26T07:37:16.173Z,0.50
2023-01-26T07:39:43.097Z,0.50
2023-01-26T07:42:11.521Z,0.40
2023-01-26T07:45:01.543Z,0.50
2023-01-26T07:47:28.385Z,0.40
2023-01-26T07:49:55.444Z,0.40
2023-01-26T07:52:22.329Z,0.40
2023-01-26T07:54:49.734Z,0.40
2023-01-26T07:57:16.693Z,0.40
2023-01-26T07:59:43.796Z,0.40
2023-01-26T08:02:10.844Z,0.40
2023-01-26T08:04:37.644Z,0.40
2023-01-26T08:07:04.515Z,0.40
2023-01-26T08:09:31.587Z,0.40
2023-01-26T08:11:59.244Z,0.40
2023-01-26T08:14:31.081Z,0.40
2023-01-26T08:17:02.788Z,0.40
2023-01-26T08:19:29.701Z,0.40
2023-01-26T08:21:57.699Z,0.40
2023-01-26T08:24:24.716Z,0.40
2023-01-26T08:26:51.654Z,0.40
2023-01-26T08:29:20.577Z,0.50
2023-01-26T08:31:47.563Z,0.40
2023-01-26T08:34:14.651Z,0.40
2023-01-26T08:36:41.527Z,0.40
2023-01-26T08:39:08.430Z,0.40
2023-01-26T08:41:35.443Z,0.50
2023-01-26T08:44:02.363Z,0.40
2023-01-26T08:46:29.296Z,0.40
2023-01-26T08:48:58.221Z,0.40
2023-01-26T08:51:26.183Z,0.40
2023-01-26T08:53:54.740Z,0.40
2023-01-26T08:56:22.172Z,0.40
2023-01-26T08:58:49.211Z,0.30
2023-01-26T09:01:17.125Z,0.30
2023-01-26T09:03:47.217Z,0.30
2023-01-26T09:06:15.980Z,0.40
2023-01-26T09:08:42.995Z,0.30
2023-01-26T09:11:10.875Z,0.30
2023-01-26T09:13:41.293Z,0.40
2023-01-26T09:16:15.733Z,0.40
2023-01-26T09:18:43.064Z,0.30
2023-01-26T09:21:10.552Z,0.40
2023-01-26T09:23:39.309Z,0.40
2023-01-26T09:26:06.493Z,0.40
2023-01-26T09:28:33.387Z,0.30
2023-01-26T09:31:10.589Z,0.30
2023-01-26T09:33:37.970Z,0.20
2023-01-26T09:36:06.914Z,0.30
2023-01-26T09:38:34.282Z,0.30
2023-01-26T09:41:18.162Z,0.30
2023-01-26T09:43:51.112Z,0.30
2023-01-26T09:46:27.789Z,0.40
2023-01-26T09:49:12.930Z,0.40
2023-01-26T09:51:49.189Z,0.40
2023-01-26T09:54:30.970Z,0.50
2023-01-26T09:57:01.950Z,0.50
2023-01-26T09:59:41.216Z,0.40
2023-01-26T10:02:40.293Z,0.40
2023-01-26T10:06:00.932Z,0.40
2023-01-26T10:09:24.276Z,0.40
2023-01-26T10:12:04.542Z,0.30
2023-01-26T10:14:45.330Z,0.30
2023-01-26T10:17:33.830Z,0.30
2023-01-26T10:20:22.648Z,0.30
2023-01-26T10:22:53.939Z,0.30
2023-01-26T10:25:29.535Z,0.40
2023-01-26T10:27:56.896Z,0.40
2023-01-26T10:30:24.209Z,0.40
2023-01-26T10:32:52.693Z,0.40
2023-01-26T10:35:24.157Z,0.30
2023-01-26T10:37:56.153Z,0.30
2023-01-26T10:40:23.120Z,0.30
2023-01-26T10:42:58.789Z,0.20
2023-01-26T10:45:33.696Z,0.30
2023-01-26T10:48:18.549Z,0.30
2023-01-26T10:50:47.063Z,0.30
2023-01-26T10:53:28.252Z,0.40
2023-01-26T10:56:07.284Z,0.50
2023-01-26T10:59:03.350Z,0.70
2023-01-26T11:01:58.799Z,0.70
2023-01-26T11:04:26.005Z,0.80
2023-01-26T11:06:53.437Z,0.80
2023-01-26T11:09:28.976Z,0.80
2023-01-26T11:12:05.659Z,0.80
2023-01-26T11:14:33.215Z,1.00
2023-01-26T11:17:25.317Z,1.00
2023-01-26T11:20:26.559Z,1.00
2023-01-26T11:23:15.237Z,1.00
2023-01-26T11:26:01.505Z,1.10
2023-01-26T11:29:02.242Z,1.00
2023-01-26T11:32:07.757Z,1.10
2023-01-26T11:35:07.449Z,1.00
2023-01-26T11:37:44.270Z,1.00
2023-01-26T11:40:14.072Z,0.90
2023-01-26T11:42:49.970Z,0.90
2023-01-26T11:45:52.688Z,0.90
2023-01-26T11:48:41.681Z,1.10
2023-01-26T11:51:21.474Z,1.10
2023-01-26T11:54:00.343Z,1.20
2023-01-26T11:56:43.766Z,1.20
2023-01-26T11:59:17.705Z,1.20
2023-01-26T12:01:56.838Z,1.20
2023-01-26T12:04:23.864Z,1.20
2023-01-26T12:07:03.705Z,1.10
2023-01-26T12:09:44.103Z,1.00
2023-01-26T12:12:26.052Z,1.10
2023-01-26T12:15:11.340Z,1.10
2023-01-26T12:18:01.355Z,1.10
2023-01-26T12:20:46.059Z,1.20
2023-01-26T12:23:26.733Z,1.30
2023-01-26T12:25:58.983Z,1.20
2023-01-26T12:28:39.664Z,1.20
2023-01-26T12:31:34.548Z,1.10
2023-01-26T12:34:01.722Z,1.00
2023-01-26T12:36:39.726Z,1.00
2023-01-26T12:39:12.763Z,0.90
2023-01-26T12:41:54.853Z,0.90
2023-01-26T12:44:21.553Z,0.80
2023-01-26T12:46:54.523Z,0.80
2023-01-26T12:49:38.290Z,0.90
2023-01-26T12:52:13.745Z,0.90
2023-01-26T12:55:11.549Z,1.00
2023-01-26T12:57:48.049Z,1.10
2023-01-26T13:00:24.498Z,1.10
2023-01-26T13:02:58.744Z,1.20
2023-01-26T13:05:29.357Z,1.10
2023-01-26T13:07:56.322Z,1.20
2023-01-26T13:10:26.487Z,1.20
2023-01-26T13:13:19.176Z,1.30
2023-01-26T13:15:46.405Z,1.30
2023-01-26T13:18:17.808Z,1.00
2023-01-26T13:20:45.862Z,1.00
2023-01-26T13:23:28.288Z,0.90
2023-01-26T13:26:17.055Z,0.70
2023-01-26T13:28:45.190Z,0.80
2023-01-26T13:31:12.996Z,0.70
2023-01-26T13:33:41.704Z,0.60
2023-01-26T13:36:18.124Z,0.50
2023-01-26T13:38:56.241Z,0.40
2023-01-26T13:41:23.308Z,0.40
2023-01-26T13:43:55.905Z,0.40
2023-01-26T13:46:38.635Z,0.40
2023-01-26T13:49:05.840Z,0.40
2023-01-26T13:51:34.174Z,0.40
2023-01-26T13:54:03.544Z,0.40
2023-01-26T13:56:35.494Z,0.40
2023-01-26T13:59:23.425Z,0.40
2023-01-26T14:01:52.767Z,0.40
2023-01-26T14:04:31.173Z,0.50
2023-01-26T14:07:17.857Z,0.50
2023-01-26T14:09:53.204Z,0.60
2023-01-26T14:12:25.956Z,0.60
2023-01-26T14:15:03.404Z,0.60
2023-01-26T14:17:33.686Z,0.60
2023-01-26T14:20:03.635Z,0.60
2023-01-26T14:22:30.861Z,0.60
2023-01-26T14:24:57.732Z,0.50
2023-01-26T14:27:44.234Z,0.40
2023-01-26T14:30:34.096Z,0.30
2023-01-26T14:33:08.292Z,0.30
2023-01-26T14:35:35.386Z,0.20
2023-01-26T14:38:07.517Z,0.20
2023-01-26T14:40:34.568Z,0.10
2023-01-26T14:43:01.599Z,0.10
2023-01-26T14:45:32.890Z,0.10
2023-01-26T14:48:04.832Z,0.10
2023-01-26T14:50:32.486Z,0.10
2023-01-26T14:53:04.173Z,0.10
2023-01-26T14:55:34.557Z,0.20
2023-01-26T14:58:20.366Z,0.30
2023-01-26T15:00:58.608Z,0.30
2023-01-26T15:03:37.416Z,0.30
2023-01-26T15:06:13.119Z,0.40
2023-01-26T15:08:41.106Z,0.50
2023-01-26T15:11:29.086Z,0.50
2023-01-26T15:13:56.347Z,0.60
2023-01-26T15:16:25.394Z,0.60
2023-01-26T15:19:22.697Z,0.70
2023-01-26T15:21:50.556Z,0.80
2023-01-26T15:24:17.896Z,0.80
2023-01-26T15:26:44.909Z,0.80
2023-01-26T15:29:31.424Z,0.80
2023-01-26T15:31:59.078Z,0.90
2023-01-26T15:34:37.767Z,0.90
2023-01-26T15:37:34.793Z,0.90
2023-01-26T15:40:01.633Z,0.90
2023-01-26T15:42:32.894Z,0.80
2023-01-26T15:44:59.657Z,0.80
2023-01-26T15:47:26.615Z,0.80
2023-01-26T15:49:53.469Z,0.70
2023-01-26T15:52:24.760Z,0.60
2023-01-26T15:54:52.114Z,0.60
2023-01-26T15:57:19.427Z,0.60
2023-01-26T15:59:46.245Z,0.50
2023-01-26T16:02:21.135Z,0.50
2023-01-26T16:04:48.449Z,0.50
2023-01-26T16:07:17.933Z,0.50
2023-01-26T16:09:44.918Z,0.40
2023-01-26T16:12:31.122Z,0.40
2023-01-26T16:14:59.120Z,0.30
2023-01-26T16:17:25.850Z,0.30
2023-01-26T16:19:52.836Z,0.30
2023-01-26T16:22:19.738Z,0.30
2023-01-26T16:24:46.786Z,0.40
2023-01-26T16:27:13.571Z,0.40
2023-01-26T16:29:40.483Z,0.40
2023-01-26T16:32:36.355Z,0.40
2023-01-26T16:35:09.369Z,0.40
2023-01-26T16:37:36.249Z,0.40
2023-01-26T16:40:03.630Z,0.40
2023-01-26T16:42:32.045Z,0.40
2023-01-26T16:44:58.803Z,0.40
2023-01-26T16:47:25.610Z,0.40
2023-01-26T16:49:53.282Z,0.50
2023-01-26T16:52:22.187Z,0.50
2023-01-26T16:54:50.364Z,0.50
2023-01-26T16:57:18.077Z,0.60
2023-01-26T16:59:45.959Z,0.60
2023-01-26T17:02:26.262Z,0.60
2023-01-26T17:04:55.635Z,0.60
2023-01-26T17:07:25.329Z,0.50
2023-01-26T17:09:54.405Z,0.50
2023-01-26T17:12:23.736Z,0.40
2023-01-26T17:14:51.841Z,0.40
2023-01-26T17:17:19.475Z,0.40
2023-01-26T17:19:47.370Z,0.30
2023-01-26T17:22:15.925Z,0.30
2023-01-26T17:24:44.139Z,0.30
2023-01-26T17:27:12.222Z,0.30
2023-01-26T17:29:42.392Z,0.20
2023-01-26T17:32:09.837Z,0.20
2023-01-26T17:34:37.731Z,0.20
2023-01-26T17:37:05.487Z,0.20
2023-01-26T17:39:33.097Z,0.20
2023-01-26T17:42:00.524Z,0.20
2023-01-26T17:44:27.263Z,0.20
2023-01-26T17:46:54.019Z,0.20
2023-01-26T17:49:21.575Z,0.20
2023-01-26T17:51:48.403Z,0.20
2023-01-26T17:54:15.120Z,0.20
2023-01-26T17:56:41.948Z,0.20
2023-01-26T17:59:09.065Z,0.20
2023-01-26T18:01:35.750Z,0.20
2023-01-26T18:04:02.596Z,0.20
2023-01-26T18:06:29.904Z,0.20
2023-01-26T18:08:57.014Z,0.20
2023-01-26T18:11:23.870Z,0.20
2023-01-26T18:13:51.816Z,0.20
2023-01-26T18:16:21.091Z,0.20
2023-01-26T18:18:48.479Z,0.30
2023-01-26T18:21:19.399Z,0.30
2023-01-26T18:23:51.645Z,0.30
2023-01-26T18:26:20.938Z,0.30
2023-01-26T18:28:48.688Z,0.30
2023-01-26T18:31:18.024Z,0.30
2023-01-26T18:33:45.683Z,0.30
2023-01-26T18:36:14.958Z,0.30
2023-01-26T18:38:43.481Z,0.30
2023-01-26T18:41:15.070Z,0.20
2023-01-26T18:43:43.697Z,0.20
2023-01-26T18:46:11.805Z,0.20
2023-01-26T18:48:38.663Z,0.20
2023-01-26T18:51:05.667Z,0.20
2023-01-26T18:53:33.288Z,0.20
2023-01-26T18:56:05.802Z,0.20
2023-01-26T18:58:33.270Z,0.30
2023-01-26T19:01:05.714Z,0.40
2023-01-26T19:03:32.958Z,0.20
2023-01-26T19:06:03.381Z,0.20
2023-01-26T19:08:30.673Z,0.20
2023-01-26T19:11:02.954Z,0.30
2023-01-26T19:13:29.725Z,0.30
2023-01-26T19:15:56.520Z,0.30
2023-01-26T19:18:23.677Z,0.30
2023-01-26T19:20:58.263Z,0.30
2023-01-26T19:23:25.381Z,0.30
2023-01-26T19:25:52.313Z,0.30
2023-01-26T19:28:19.330Z,0.30
2023-01-26T19:30:46.384Z,0.30
2023-01-26T19:33:25.491Z,0.40
2023-01-26T19:35:52.847Z,0.40
2023-01-26T19:38:20.384Z,0.40
2023-01-26T19:40:49.254Z,0.40
2023-01-26T19:43:18.988Z,0.30
2023-01-26T19:45:54.000Z,0.40
2023-01-26T19:48:23.093Z,0.40
2023-01-26T19:51:05.820Z,0.40
2023-01-26T19:53:38.794Z,0.40
2023-01-26T19:56:18.388Z,0.40
2023-01-26T19:58:56.685Z,0.40
2023-01-26T20:01:25.346Z,0.40
2023-01-26T20:03:58.915Z,0.40
2023-01-26T20:06:29.400Z,0.40
2023-01-26T20:08:56.975Z,0.40
2023-01-26T20:11:28.841Z,0.50
2023-01-26T20:14:00.371Z,0.50
2023-01-26T20:16:30.797Z,0.50
2023-01-26T20:18:59.152Z,0.40
2023-01-26T20:21:28.158Z,0.50
2023-01-26T20:23:56.213Z,0.50
2023-01-26T20:26:25.877Z,0.40
2023-01-26T20:28:58.348Z,0.40
2023-01-26T20:31:26.485Z,0.40
2023-01-26T20:34:01.662Z,0.40
2023-01-26T20:36:34.283Z,0.30
2023-01-26T20:39:01.464Z,0.30
2023-01-26T20:41:30.444Z,0.30
2023-01-26T20:44:01.711Z,0.30
2023-01-26T20:46:40.611Z,0.30
2023-01-26T20:49:11.322Z,0.30
2023-01-26T20:51:43.061Z,0.30
2023-01-26T20:54:12.730Z,0.30
2023-01-26T20:56:41.543Z,0.30
2023-01-26T20:59:09.221Z,0.40
2023-01-26T21:01:36.556Z,0.40
2023-01-26T21:04:05.490Z,0.40
2023-01-26T21:06:32.994Z,0.30
2023-01-26T21:09:00.263Z,0.30
2023-01-26T21:11:30.533Z,0.30
2023-01-26T21:14:00.608Z,0.40
2023-01-26T21:16:28.900Z,0.40
2023-01-26T21:18:55.806Z,0.40
2023-01-26T21:21:23.194Z,0.40
2023-01-26T21:23:50.980Z,0.50
2023-01-26T21:26:23.624Z,0.40
2023-01-26T21:28:59.638Z,0.40
2023-01-26T21:31:29.429Z,0.40
2023-01-26T21:33:57.209Z,0.30
2023-01-26T21:36:26.536Z,0.40
2023-01-26T21:38:55.661Z,0.40
2023-01-26T21:41:44.464Z,0.30
2023-01-26T21:44:14.204Z,0.40
2023-01-26T21:46:41.215Z,0.30
2023-01-26T21:49:09.433Z,0.30
2023-01-26T21:51:54.673Z,0.30
2023-01-26T21:54:21.634Z,0.20
2023-01-26T21:56:48.516Z,0.20
2023-01-26T21:59:16.941Z,0.20
2023-01-26T22:01:46.167Z,0.30
2023-01-26T22:04:16.604Z,0.30
2023-01-26T22:06:44.720Z,0.40
2023-01-26T22:09:13.873Z,0.20
2023-01-26T22:11:40.739Z,0.30
2023-01-26T22:14:09.115Z,0.30
2023-01-26T22:16:35.952Z,0.30
2023-01-26T22:19:03.549Z,0.30
2023-01-26T22:21:30.448Z,0.30
2023-01-26T22:23:57.288Z,0.20
2023-01-26T22:26:24.056Z,0.20
2023-01-26T22:28:55.695Z,0.20
2023-01-26T22:31:26.088Z,0.20
2023-01-26T22:33:54.623Z,0.20
2023-01-26T22:36:22.562Z,0.20
2023-01-26T22:38:49.690Z,0.30
2023-01-26T22:41:21.375Z,0.30
2023-01-26T22:43:49.954Z,0.40
2023-01-26T22:46:19.273Z,0.30
2023-01-26T22:48:46.328Z,0.30
2023-01-26T22:51:18.076Z,0.30
2023-01-26T22:53:45.564Z,0.30
2023-01-26T22:56:12.671Z,0.30
2023-01-26T22:58:56.661Z,0.40
2023-01-26T23:01:25.487Z,0.40
2023-01-26T23:03:54.422Z,0.40
2023-01-26T23:06:21.904Z,0.50
2023-01-26T23:08:48.735Z,0.50
2023-01-26T23:11:20.712Z,0.50
2023-01-26T23:13:50.695Z,0.40
2023-01-26T23:16:18.222Z,0.40
2023-01-26T23:18:45.370Z,0.40
2023-01-26T23:21:12.555Z,0.40
2023-01-26T23:23:40.908Z,0.40
2023-01-26T23:26:09.026Z,0.40
2023-01-26T23:28:41.912Z,0.40
2023-01-26T23:31:09.699Z,0.30
2023-01-26T23:33:37.527Z,0.30
2023-01-26T23:36:06.008Z,0.30
2023-01-26T23:38:32.945Z,0.40
2023-01-26T23:41:02.828Z,0.40
2023-01-26T23:43:29.529Z,0.40
2023-01-26T23:45:56.813Z,0.40
2023-01-26T23:48:25.156Z,0.40
2023-01-26T23:51:03.917Z,0.40
2023-01-26T23:53:31.390Z,0.40
2023-01-26T23:56:00.788Z,0.40
2023-01-26T23:58:27.672Z,0.40
